Laferrere, Argentina
Current Conditions -  °F | °C
As of 1:00 PM on Saturday 22 Nov 2014 (Local Time) from SAEZ Reporting Station
Scattered Clouds Scattered Clouds  
Wind Chill: 70°   Ceiling: Unl
Heat Index: 70°   Visibility: 6mi
Dew Point: 50°   Wind: 9mph
Humidity: 49%   Direction: 250°WSW
Pressure: 29.91"   Gusts: NA
Location:  34.75°S, 58.58°W
Report Text: SAEZ 221600Z 25008KT 190V290 9999 SCT042 21/10 Q1013
Loading
Personal Weather Stations






























Interactive Weather Map New forecast layout! Learn more

10-Day Weather Forecast

Advertisements
Track Severe Weather on mobile